createdAt,value
2023-01-18T00:01:19.464Z,9.48
2023-01-18T00:03:46.789Z,9.57
2023-01-18T00:06:13.923Z,9.48
2023-01-18T00:08:42.538Z,9.35
2023-01-18T00:11:15.552Z,8.60
2023-01-18T00:13:43.467Z,9.23
2023-01-18T00:16:17.494Z,8.32
2023-01-18T00:18:50.851Z,10.90
2023-01-18T00:21:17.654Z,9.65
2023-01-18T00:23:44.418Z,9.85
2023-01-18T00:26:12.755Z,8.60
2023-01-18T00:28:40.631Z,9.10
2023-01-18T00:31:20.226Z,10.23
2023-01-18T00:33:49.277Z,10.02
2023-01-18T00:36:17.270Z,9.50
2023-01-18T00:38:51.389Z,9.70
2023-01-18T00:41:19.487Z,10.02
2023-01-18T00:43:46.523Z,7.50
2023-01-18T00:46:18.110Z,9.43
2023-01-18T00:48:45.672Z,7.95
2023-01-18T00:51:17.000Z,7.70
2023-01-18T00:53:44.683Z,8.65
2023-01-18T00:56:16.338Z,7.93
2023-01-18T00:58:43.642Z,7.97
2023-01-18T01:01:11.918Z,8.52
2023-01-18T01:03:58.182Z,8.38
2023-01-18T01:06:45.869Z,8.23
2023-01-18T01:09:20.941Z,9.57
2023-01-18T01:12:08.217Z,8.52
2023-01-18T01:14:59.175Z,7.57
2023-01-18T01:17:46.837Z,8.25
2023-01-18T01:20:32.161Z,6.90
2023-01-18T01:23:38.029Z,7.80
2023-01-18T01:26:10.937Z,7.55
2023-01-18T01:28:44.787Z,7.13
2023-01-18T01:31:17.019Z,10.57
2023-01-18T01:33:45.587Z,10.90
2023-01-18T01:36:17.610Z,7.85
2023-01-18T01:38:44.816Z,6.95
2023-01-18T01:41:16.789Z,8.32
2023-01-18T01:43:50.012Z,7.70
2023-01-18T01:46:27.935Z,8.32
2023-01-18T01:49:07.814Z,9.30
2023-01-18T01:51:39.599Z,7.55
2023-01-18T01:54:15.108Z,6.63
2023-01-18T01:56:46.228Z,7.28
2023-01-18T01:59:15.207Z,8.32
2023-01-18T02:01:43.927Z,6.70
2023-01-18T02:04:12.268Z,7.35
2023-01-18T02:06:40.293Z,7.07
2023-01-18T02:13:18.247Z,8.10
2023-01-18T02:15:58.639Z,9.63
2023-01-18T02:18:44.073Z,7.57
2023-01-18T02:21:23.585Z,6.80
2023-01-18T02:24:39.448Z,7.25
2023-01-18T02:27:35.371Z,6.15
2023-01-18T02:30:12.789Z,6.80
2023-01-18T02:32:52.171Z,8.90
2023-01-18T02:35:50.398Z,6.75
2023-01-18T02:38:25.149Z,6.55
2023-01-18T02:41:48.513Z,6.40
2023-01-18T02:44:42.551Z,7.90
2023-01-18T02:47:10.298Z,6.40
2023-01-18T02:49:37.095Z,6.63
2023-01-18T02:52:06.853Z,5.40
2023-01-18T02:54:39.791Z,8.85
2023-01-18T02:57:15.173Z,7.95
2023-01-18T02:59:54.855Z,7.50
2023-01-18T03:02:26.312Z,7.82
2023-01-18T03:04:55.556Z,6.10
2023-01-18T03:07:53.328Z,8.90
2023-01-18T03:10:22.909Z,6.13
2023-01-18T03:13:23.438Z,7.13
2023-01-18T03:16:04.146Z,6.75
2023-01-18T03:19:00.517Z,7.35
2023-01-18T03:21:44.396Z,8.02
2023-01-18T03:24:13.286Z,7.10
2023-01-18T03:26:49.121Z,6.28
2023-01-18T03:29:38.966Z,6.95
2023-01-18T03:32:35.508Z,7.05
2023-01-18T03:35:16.766Z,5.75
2023-01-18T03:37:47.428Z,6.15
2023-01-18T03:40:20.944Z,5.88
2023-01-18T03:42:59.585Z,6.00
2023-01-18T03:46:05.353Z,7.00
2023-01-18T03:48:33.413Z,7.07
2023-01-18T03:51:34.531Z,6.28
2023-01-18T03:54:15.317Z,6.28
2023-01-18T03:57:00.706Z,5.95
2023-01-18T03:59:35.114Z,6.05
2023-01-18T04:02:05.521Z,6.82
2023-01-18T04:04:32.651Z,6.05
2023-01-18T04:06:59.696Z,5.05
2023-01-18T04:09:27.316Z,5.18
2023-01-18T04:11:54.204Z,6.93
2023-01-18T04:14:21.129Z,5.28
2023-01-18T04:16:47.882Z,4.80
2023-01-18T04:19:14.588Z,5.63
2023-01-18T04:21:41.507Z,5.07
2023-01-18T04:24:08.643Z,6.60
2023-01-18T04:26:35.495Z,5.25
2023-01-18T04:29:02.804Z,5.45
2023-01-18T04:31:30.381Z,4.63
2023-01-18T04:33:57.162Z,5.38
2023-01-18T04:36:23.940Z,4.93
2023-01-18T04:38:54.884Z,4.95
2023-01-18T04:41:22.650Z,4.20
2023-01-18T04:43:49.651Z,3.22
2023-01-18T04:46:16.621Z,4.68
2023-01-18T04:48:43.416Z,4.90
2023-01-18T04:51:14.591Z,5.25
2023-01-18T04:53:44.029Z,6.35
2023-01-18T04:56:11.957Z,4.32
2023-01-18T04:58:38.796Z,4.30
2023-01-18T05:01:09.054Z,4.35
2023-01-18T05:03:38.314Z,3.80
2023-01-18T05:06:08.321Z,3.85
2023-01-18T05:08:35.601Z,4.10
2023-01-18T05:11:07.846Z,5.30
2023-01-18T05:13:34.634Z,3.70
2023-01-18T05:16:04.496Z,5.55
2023-01-18T05:18:33.256Z,5.93
2023-01-18T05:21:00.281Z,5.60
2023-01-18T05:23:27.034Z,4.45
2023-01-18T05:25:59.475Z,3.20
2023-01-18T05:28:28.479Z,3.25
2023-01-18T05:30:56.080Z,4.00
2023-01-18T05:33:23.335Z,4.65
2023-01-18T05:35:55.469Z,3.28
2023-01-18T05:38:24.302Z,6.00
2023-01-18T05:40:54.755Z,3.47
2023-01-18T05:43:24.215Z,3.53
2023-01-18T05:45:51.484Z,3.95
2023-01-18T05:48:20.001Z,4.00
2023-01-18T05:50:48.787Z,3.08
2023-01-18T05:53:20.595Z,4.93
2023-01-18T05:56:00.363Z,5.40
2023-01-18T05:58:28.777Z,4.65
2023-01-18T06:00:56.014Z,2.72
2023-01-18T06:03:25.186Z,4.63
2023-01-18T06:05:53.053Z,5.25
2023-01-18T06:08:20.806Z,3.88
2023-01-18T06:10:55.321Z,4.88
2023-01-18T06:13:23.568Z,6.35
2023-01-18T06:15:51.874Z,4.28
2023-01-18T06:18:18.622Z,6.47
2023-01-18T06:20:45.331Z,4.38
2023-01-18T06:23:12.401Z,4.15
2023-01-18T06:25:39.208Z,5.70
2023-01-18T06:28:06.430Z,5.20
2023-01-18T06:30:34.379Z,5.53
2023-01-18T06:33:06.597Z,6.05
2023-01-18T06:35:34.512Z,6.40
2023-01-18T06:38:02.282Z,5.15
2023-01-18T06:40:29.132Z,5.82
2023-01-18T06:42:56.419Z,5.78
2023-01-18T06:45:25.407Z,5.22
2023-01-18T06:47:53.157Z,5.53
2023-01-18T06:50:20.277Z,5.57
2023-01-18T06:52:47.109Z,6.38
2023-01-18T06:55:15.463Z,6.68
2023-01-18T06:57:42.441Z,6.28
2023-01-18T07:00:12.084Z,5.13
2023-01-18T07:02:39.108Z,5.35
2023-01-18T07:05:06.694Z,5.00
2023-01-18T07:07:33.588Z,4.75
2023-01-18T07:10:00.382Z,5.78
2023-01-18T07:12:27.153Z,5.70
2023-01-18T07:14:53.919Z,5.68
2023-01-18T07:17:20.738Z,5.18
2023-01-18T07:19:47.455Z,4.43
2023-01-18T07:22:14.461Z,6.28
2023-01-18T07:24:41.247Z,5.18
2023-01-18T07:27:08.051Z,5.05
2023-01-18T07:29:35.274Z,5.68
2023-01-18T07:32:02.540Z,5.78
2023-01-18T07:34:29.368Z,5.35
2023-01-18T07:36:56.117Z,6.32
2023-01-18T07:39:22.941Z,7.28
2023-01-18T07:41:49.666Z,6.97
2023-01-18T07:44:16.531Z,5.05
2023-01-18T07:46:43.419Z,5.00
2023-01-18T07:49:10.216Z,4.30
2023-01-18T07:51:37.051Z,4.47
2023-01-18T07:54:03.860Z,5.53
2023-01-18T07:56:30.712Z,4.65
2023-01-18T07:58:57.473Z,4.53
2023-01-18T08:01:24.551Z,4.20
2023-01-18T08:03:53.545Z,5.22
2023-01-18T08:06:26.447Z,6.53
2023-01-18T08:08:55.995Z,6.65
2023-01-18T08:11:23.044Z,5.30
2023-01-18T08:13:50.665Z,4.22
2023-01-18T08:16:18.268Z,5.18
2023-01-18T08:18:45.808Z,4.10
2023-01-18T08:21:13.981Z,5.13
2023-01-18T08:23:41.340Z,5.65
2023-01-18T08:26:10.490Z,5.65
2023-01-18T08:28:37.328Z,4.65
2023-01-18T08:31:19.662Z,6.38
2023-01-18T08:33:49.069Z,4.88
2023-01-18T08:36:23.304Z,6.28
2023-01-18T08:38:53.537Z,5.63
2023-01-18T08:41:21.088Z,4.80
2023-01-18T08:43:52.437Z,4.68
2023-01-18T08:46:19.523Z,6.90
2023-01-18T08:48:57.638Z,6.85
2023-01-18T08:51:26.156Z,4.57
2023-01-18T08:53:57.222Z,5.30
2023-01-18T08:56:24.935Z,4.72
2023-01-18T08:58:52.261Z,4.72
2023-01-18T09:01:19.189Z,4.68
2023-01-18T09:03:47.946Z,5.10
2023-01-18T09:06:16.728Z,5.63
2023-01-18T09:08:43.615Z,6.28
2023-01-18T09:11:10.809Z,5.53
2023-01-18T09:13:54.623Z,4.22
2023-01-18T09:16:26.458Z,4.30
2023-01-18T09:18:55.359Z,4.93
2023-01-18T09:21:22.216Z,5.65
2023-01-18T09:23:50.694Z,4.78
2023-01-18T09:26:20.594Z,4.38
2023-01-18T09:28:52.702Z,6.20
2023-01-18T09:31:22.659Z,4.78
2023-01-18T09:33:53.721Z,5.22
2023-01-18T09:36:26.432Z,4.45
2023-01-18T09:38:54.927Z,4.45
2023-01-18T09:41:39.656Z,4.10
2023-01-18T09:44:35.960Z,5.05
2023-01-18T09:47:27.256Z,4.45
2023-01-18T09:49:58.919Z,4.45
2023-01-18T09:52:56.168Z,6.53
2023-01-18T09:55:27.687Z,7.43
2023-01-18T09:58:16.799Z,5.30
2023-01-18T10:00:47.674Z,8.85
2023-01-18T10:03:32.823Z,5.10
2023-01-18T10:06:15.440Z,5.95
2023-01-18T10:09:07.124Z,7.13
2023-01-18T10:12:00.030Z,4.85
2023-01-18T10:14:48.479Z,6.45
2023-01-18T10:17:24.826Z,4.75
2023-01-18T10:19:51.725Z,6.13
2023-01-18T10:22:48.018Z,6.57
2023-01-18T10:25:36.298Z,7.30
2023-01-18T10:28:50.834Z,6.32
2023-01-18T10:31:55.708Z,6.40
2023-01-18T10:37:43.516Z,6.13
2023-01-18T10:40:13.514Z,7.30
2023-01-18T10:42:49.175Z,5.85
2023-01-18T10:45:29.298Z,5.45
2023-01-18T10:47:59.707Z,5.93
2023-01-18T10:50:44.443Z,7.32
2023-01-18T10:53:37.574Z,6.15
2023-01-18T10:56:18.366Z,6.97
2023-01-18T10:58:51.191Z,5.70
2023-01-18T11:01:25.675Z,6.90
2023-01-18T11:04:16.683Z,6.50
2023-01-18T11:07:02.725Z,7.22
2023-01-18T11:09:49.450Z,8.02
2023-01-18T11:12:44.314Z,9.50
2023-01-18T11:15:14.215Z,8.07
2023-01-18T11:18:00.424Z,6.68
2023-01-18T11:20:50.020Z,6.45
2023-01-18T11:23:36.239Z,5.43
2023-01-18T11:26:09.109Z,5.00
2023-01-18T11:28:45.051Z,8.18
2023-01-18T11:31:17.505Z,5.50
2023-01-18T11:34:02.780Z,7.28
2023-01-18T11:36:41.404Z,6.15
2023-01-18T11:39:24.702Z,5.22
2023-01-18T11:42:10.117Z,5.13
2023-01-18T11:44:56.209Z,6.97
2023-01-18T11:47:57.382Z,4.35
2023-01-18T11:50:54.020Z,5.97
2023-01-18T11:54:02.821Z,5.70
2023-01-18T11:56:47.284Z,6.32
2023-01-18T11:59:34.067Z,4.15
2023-01-18T12:02:45.431Z,5.78
2023-01-18T12:05:45.052Z,4.15
2023-01-18T12:08:46.433Z,4.15
2023-01-18T12:11:45.415Z,4.00
2023-01-18T12:14:50.231Z,5.60
2023-01-18T12:18:01.299Z,6.03
2023-01-18T12:21:21.532Z,4.00
2023-01-18T12:24:10.298Z,3.30
2023-01-18T12:26:59.557Z,3.90
2023-01-18T12:30:15.847Z,5.15
2023-01-18T12:33:21.459Z,7.03
2023-01-18T12:36:37.099Z,4.75
2023-01-18T12:39:25.422Z,3.38
2023-01-18T12:42:55.984Z,4.78
2023-01-18T12:45:45.178Z,4.80
2023-01-18T12:48:24.691Z,4.55
2023-01-18T12:50:51.894Z,4.38
2023-01-18T12:53:55.791Z,4.93
2023-01-18T12:56:45.288Z,4.75
2023-01-18T12:59:23.253Z,4.10
2023-01-18T13:02:00.374Z,5.05
2023-01-18T13:04:36.186Z,6.07
2023-01-18T13:07:11.130Z,4.82
2023-01-18T13:09:44.123Z,7.85
2023-01-18T13:12:13.426Z,4.85
2023-01-18T13:15:07.875Z,5.82
2023-01-18T13:18:05.644Z,5.72
2023-01-18T13:21:08.093Z,5.57
2023-01-18T13:23:56.229Z,4.88
2023-01-18T13:26:30.502Z,4.28
2023-01-18T13:29:29.129Z,4.50
2023-01-18T13:31:57.939Z,4.82
2023-01-18T13:34:47.688Z,4.72
2023-01-18T13:37:39.910Z,5.93
2023-01-18T13:40:19.585Z,6.47
2023-01-18T13:42:46.535Z,7.20
2023-01-18T13:45:24.781Z,6.05
2023-01-18T13:48:03.341Z,5.10
2023-01-18T13:50:39.250Z,4.53
2023-01-18T13:53:14.818Z,4.53
2023-01-18T13:55:54.956Z,4.93
2023-01-18T13:58:31.257Z,5.13
2023-01-18T14:01:03.456Z,5.32
2023-01-18T14:03:36.838Z,6.28
2023-01-18T14:06:14.965Z,5.20
2023-01-18T14:08:52.556Z,4.60
2023-01-18T14:11:31.284Z,4.72
2023-01-18T14:13:57.965Z,5.32
2023-01-18T14:16:31.692Z,5.63
2023-01-18T14:19:17.047Z,5.20
2023-01-18T14:22:15.052Z,6.10
2023-01-18T14:25:12.957Z,4.60
2023-01-18T14:27:47.011Z,4.38
2023-01-18T14:33:04.807Z,3.78
2023-01-18T14:35:31.657Z,5.60
2023-01-18T14:38:18.721Z,3.92
2023-01-18T14:40:57.132Z,4.90
2023-01-18T14:43:28.345Z,5.22
2023-01-18T14:46:15.823Z,6.50
2023-01-18T14:48:53.798Z,5.68
2023-01-18T14:51:28.462Z,5.28
2023-01-18T14:53:58.155Z,5.32
2023-01-18T14:56:28.457Z,4.95
2023-01-18T14:59:03.207Z,4.75
2023-01-18T15:01:40.036Z,5.63
2023-01-18T15:04:21.485Z,6.68
2023-01-18T15:07:01.049Z,4.63
2023-01-18T15:09:31.899Z,4.22
2023-01-18T15:12:04.551Z,5.53
2023-01-18T15:14:36.549Z,6.07
2023-01-18T15:17:10.048Z,4.80
2023-01-18T15:19:44.146Z,5.53
2023-01-18T15:24:44.068Z,4.85
2023-01-18T15:27:18.095Z,5.65
2023-01-18T15:32:22.582Z,5.00
2023-01-18T15:34:52.303Z,4.03
2023-01-18T15:37:33.108Z,4.25
2023-01-18T15:40:21.850Z,8.32
2023-01-18T15:43:04.775Z,4.65
2023-01-18T15:45:39.289Z,4.82
2023-01-18T15:48:14.475Z,7.85
2023-01-18T15:50:47.462Z,5.47
2023-01-18T15:53:35.740Z,5.53
2023-01-18T15:56:17.115Z,4.95
2023-01-18T15:58:55.590Z,4.93
2023-01-18T16:01:29.225Z,4.25
2023-01-18T16:04:00.713Z,5.80
2023-01-18T16:06:29.645Z,7.40
2023-01-18T16:09:19.652Z,4.85
2023-01-18T16:11:56.780Z,4.75
2023-01-18T16:14:24.335Z,5.22
2023-01-18T16:16:53.446Z,4.88
2023-01-18T16:19:22.485Z,4.78
2023-01-18T16:22:28.023Z,5.72
2023-01-18T16:25:08.492Z,7.47
2023-01-18T16:27:52.569Z,6.22
2023-01-18T16:30:33.936Z,6.47
2023-01-18T16:33:15.778Z,7.10
2023-01-18T16:35:42.828Z,6.32
2023-01-18T16:38:20.078Z,7.18
2023-01-18T16:40:50.245Z,7.85
2023-01-18T16:43:24.083Z,7.60
2023-01-18T16:45:54.403Z,6.88
2023-01-18T16:48:27.321Z,8.30
2023-01-18T16:50:56.067Z,6.38
2023-01-18T16:53:23.106Z,8.48
2023-01-18T16:55:49.904Z,6.88
2023-01-18T16:58:21.473Z,7.35
2023-01-18T17:01:00.658Z,5.32
2023-01-18T17:03:27.814Z,6.47
2023-01-18T17:05:55.432Z,9.05
2023-01-18T17:08:22.437Z,8.50
2023-01-18T17:10:51.987Z,8.18
2023-01-18T17:13:18.901Z,8.00
2023-01-18T17:15:45.852Z,10.20
2023-01-18T17:18:26.970Z,7.88
2023-01-18T17:20:55.167Z,7.70
2023-01-18T17:23:22.977Z,9.07
2023-01-18T17:25:49.993Z,10.45
2023-01-18T17:28:19.305Z,11.10
2023-01-18T17:30:49.333Z,7.68
2023-01-18T17:33:22.114Z,7.75
2023-01-18T17:35:50.872Z,7.70
2023-01-18T17:38:24.368Z,7.32
2023-01-18T17:40:52.009Z,9.63
2023-01-18T17:43:32.016Z,6.68
2023-01-18T17:46:02.389Z,7.75
2023-01-18T17:48:29.743Z,9.30
2023-01-18T17:50:56.621Z,7.47
2023-01-18T17:53:23.367Z,8.77
2023-01-18T17:55:50.364Z,8.95
2023-01-18T17:58:17.123Z,9.60
2023-01-18T18:00:44.687Z,8.60
2023-01-18T18:03:11.529Z,10.32
2023-01-18T18:05:38.355Z,8.07
2023-01-18T18:08:05.424Z,6.55
2023-01-18T18:10:32.253Z,9.65
2023-01-18T18:12:59.698Z,8.13
2023-01-18T18:15:27.302Z,7.43
2023-01-18T18:17:54.031Z,7.10
2023-01-18T18:20:22.808Z,7.22
2023-01-18T18:22:49.978Z,8.25
2023-01-18T18:25:16.765Z,9.23
2023-01-18T18:27:46.425Z,6.72
2023-01-18T18:30:15.595Z,8.80
2023-01-18T18:32:42.552Z,6.00
2023-01-18T18:35:23.774Z,6.68
2023-01-18T18:37:53.533Z,6.60
2023-01-18T18:40:20.350Z,7.55
2023-01-18T18:43:00.677Z,10.75
2023-01-18T18:45:33.873Z,7.95
2023-01-18T18:48:01.324Z,8.52
2023-01-18T18:50:29.258Z,7.95
2023-01-18T18:52:56.523Z,9.13
2023-01-18T18:55:23.791Z,7.20
2023-01-18T18:57:50.694Z,9.48
2023-01-18T19:00:18.115Z,6.63
2023-01-18T19:02:46.314Z,8.90
2023-01-18T19:05:13.082Z,7.82
2023-01-18T19:07:40.580Z,7.82
2023-01-18T19:10:07.865Z,9.63
2023-01-18T19:12:34.736Z,7.50
2023-01-18T19:15:01.663Z,9.98
2023-01-18T19:17:31.337Z,7.53
2023-01-18T19:19:59.051Z,7.72
2023-01-18T19:22:26.485Z,9.15
2023-01-18T19:24:53.277Z,13.27
2023-01-18T19:27:21.295Z,7.07
2023-01-18T19:29:48.666Z,8.13
2023-01-18T19:32:15.956Z,8.73
2023-01-18T19:34:42.708Z,10.63
2023-01-18T19:37:09.464Z,7.28
2023-01-18T19:39:36.420Z,8.18
2023-01-18T19:42:03.319Z,8.52
2023-01-18T19:44:30.559Z,8.65
2023-01-18T19:47:00.578Z,8.93
2023-01-18T19:49:27.359Z,9.75
2023-01-18T19:51:54.858Z,8.55
2023-01-18T19:54:22.398Z,9.13
2023-01-18T19:56:49.549Z,9.82
2023-01-18T19:59:16.502Z,8.45
2023-01-18T20:01:43.649Z,10.38
2023-01-18T20:04:12.859Z,9.40
2023-01-18T20:06:39.910Z,10.98
2023-01-18T20:09:17.665Z,9.80
2023-01-18T20:11:45.366Z,12.15
2023-01-18T20:14:13.083Z,8.95
2023-01-18T20:16:40.206Z,9.20
2023-01-18T20:19:07.087Z,11.80
2023-01-18T20:21:33.896Z,9.23
2023-01-18T20:24:01.010Z,8.60
2023-01-18T20:26:36.465Z,10.73
2023-01-18T20:29:08.568Z,9.93
2023-01-18T20:31:38.486Z,7.90
2023-01-18T20:34:06.620Z,8.80
2023-01-18T20:36:37.419Z,8.73
2023-01-18T20:39:06.198Z,8.80
2023-01-18T20:41:32.940Z,9.88
2023-01-18T20:43:59.895Z,10.13
2023-01-18T20:46:26.689Z,10.75
2023-01-18T20:48:53.658Z,10.15
2023-01-18T20:51:20.842Z,11.40
2023-01-18T20:53:47.581Z,10.38
2023-01-18T20:56:28.377Z,11.55
2023-01-18T20:58:56.209Z,12.45
2023-01-18T21:01:23.376Z,10.10
2023-01-18T21:03:55.470Z,11.02
2023-01-18T21:06:22.737Z,11.88
2023-01-18T21:08:53.314Z,8.90
2023-01-18T21:11:23.104Z,11.30
2023-01-18T21:13:50.324Z,10.85
2023-01-18T21:16:17.842Z,11.25
2023-01-18T21:18:44.911Z,10.35
2023-01-18T21:21:12.727Z,9.73
2023-01-18T21:23:39.788Z,13.18
2023-01-18T21:26:12.063Z,10.65
2023-01-18T21:28:39.438Z,9.75
2023-01-18T21:31:06.925Z,10.55
2023-01-18T21:33:35.431Z,10.27
2023-01-18T21:36:08.686Z,12.30
2023-01-18T21:38:35.979Z,8.75
2023-01-18T21:41:21.756Z,10.77
2023-01-18T21:44:14.928Z,11.27
2023-01-18T21:46:46.478Z,12.80
2023-01-18T21:49:47.449Z,10.10
2023-01-18T21:52:39.212Z,11.85
2023-01-18T21:55:06.126Z,10.43
2023-01-18T21:57:32.907Z,11.80
2023-01-18T21:59:59.717Z,11.32
2023-01-18T22:02:26.661Z,12.32
2023-01-18T22:05:19.812Z,10.73
2023-01-18T22:07:46.622Z,13.80
2023-01-18T22:10:13.528Z,12.07
2023-01-18T22:12:40.283Z,12.05
2023-01-18T22:15:07.574Z,12.23
2023-01-18T22:17:34.381Z,12.63
2023-01-18T22:20:01.851Z,11.45
2023-01-18T22:22:28.931Z,12.60
2023-01-18T22:24:56.993Z,11.82
2023-01-18T22:27:23.727Z,12.23
2023-01-18T22:29:50.675Z,10.75
2023-01-18T22:32:17.416Z,12.32
2023-01-18T22:34:44.104Z,12.25
2023-01-18T22:37:11.550Z,11.13
2023-01-18T22:39:38.251Z,10.45
2023-01-18T22:42:05.298Z,11.18
2023-01-18T22:44:32.875Z,10.40
2023-01-18T22:46:59.755Z,12.85
2023-01-18T22:49:27.618Z,11.07
2023-01-18T22:51:54.444Z,12.10
2023-01-18T22:54:22.857Z,12.18
2023-01-18T22:56:49.715Z,11.38
2023-01-18T22:59:16.558Z,14.02
2023-01-18T23:01:43.471Z,13.75
2023-01-18T23:04:10.383Z,12.95
2023-01-18T23:06:46.579Z,14.00
2023-01-18T23:09:16.223Z,13.00
2023-01-18T23:11:44.787Z,10.57
2023-01-18T23:14:30.195Z,12.27
2023-01-18T23:17:15.445Z,12.98
2023-01-18T23:19:42.220Z,14.30
2023-01-18T23:22:09.126Z,11.75
2023-01-18T23:24:37.508Z,12.73
2023-01-18T23:27:07.879Z,12.00
2023-01-18T23:29:34.691Z,11.57
2023-01-18T23:32:01.756Z,13.32
2023-01-18T23:34:28.591Z,11.00
2023-01-18T23:36:55.598Z,12.45
2023-01-18T23:39:41.300Z,13.15
2023-01-18T23:42:27.167Z,12.80
2023-01-18T23:45:12.488Z,11.50
2023-01-18T23:47:57.781Z,11.10
2023-01-18T23:50:43.342Z,10.88
2023-01-18T23:53:32.285Z,10.40
2023-01-18T23:56:00.109Z,8.68
2023-01-18T23:58:27.564Z,10.95
